Flight Track Log - Related Links

Times and Time Zones

All times are in EDT time to prevent confusion due to time zone crossing. See the N229CN flight status page for this flight to view local times or setup timezone preferences in your user account.

Time Position Orientation Groundspeed Altitude Reporting Facility
EDT Latitude Longitude Course Direction KTS MPH feet Rate Location/Type
Thu 06:54:42 PM 34.3558 -97.9694 183° South 223 257 6,900  Level Fort Worth Center
Thu 06:56:42 PM 34.2139 -97.9786 183° South 256 295 11,800 2,567 Climbing Fort Worth Center
Thu 06:57:42 PM 34.1406 -97.9906 188° South 261 300 14,600 3,000 Climbing Fort Worth Center
Thu 06:58:00 PM 33.9478 -97.9802 185° South  Level FlightAware Approximate
Thu 06:58:42 PM 34.0614 -98.0103 192° South 261 300 17,800  Level Fort Worth Center
Thu 06:59:42 PM 33.9881 -98.0347 195° South 267 307 20,000 2,150 Climbing Fort Worth Center
Thu 07:00:42 PM 33.9086 -98.0567 193° South 282 325 22,100 2,150 Climbing Fort Worth Center
Thu 07:01:42 PM 33.8169 -98.0611 182° South 302 348 24,300 2,000 Climbing Fort Worth Center
Thu 07:02:42 PM 33.7375 -98.0628 181° South 318 366 26,100 1,700 Climbing Fort Worth Center
Thu 07:03:42 PM 33.6436 -98.0672 182° South 334 384 27,700 1,650 Climbing Fort Worth Center
Thu 07:04:42 PM 33.5497 -98.0714 182° South 334 384 29,400 1,850 Climbing Fort Worth Center
Thu 07:05:42 PM 33.4578 -98.0733 181° South 339 390 31,400 1,750 Climbing Fort Worth Center
Thu 07:06:42 PM 33.3703 -98.0775 182° South 329 379 32,900 800 Climbing Fort Worth Center
Thu 07:07:42 PM 33.2742 -98.0794 181° South 333 383 33,000 50 Climbing Fort Worth Center
Thu 07:08:42 PM 33.1675 -98.0836 182° South 366 421 33,000  Level Fort Worth Center
Thu 07:09:42 PM 33.0633 -98.0878 182° South 380 437 33,000  Level Fort Worth Center
Thu 07:10:42 PM 32.9525 -98.0892 181° South 390 449 33,000 850 Level Fort Worth Center
Thu 07:11:42 PM 32.8378 -98.0933 182° South 389 448 34,700 1,950 Climbing Fort Worth Center
Thu 07:12:42 PM 32.7439 -98.0975 182° South 360 414 36,900 1,850 Climbing Fort Worth Center
Thu 07:13:42 PM 32.6581 -98.0994 181° South 324 373 38,400 1,450 Climbing Fort Worth Center
Thu 07:14:42 PM 32.5725 -98.1011 181° South 307 353 39,800 1,250 Climbing Fort Worth Center
Thu 07:15:42 PM 32.4892 -98.1056 183° South 307 353 40,900 600 Climbing Fort Worth Center
Thu 07:16:42 PM 32.3972 -98.1097 182° South 322 371 41,000 50 Climbing Fort Worth Center
Thu 07:17:42 PM 32.2969 -98.1114 181° South 343 395 41,000  Level Fort Worth Center
Thu 07:18:42 PM 32.1925 -98.1156 182° South 372 428 41,000  Level Fort Worth Center
Thu 07:19:42 PM 32.0881 -98.1172 181° South 380 437 41,000  Level Fort Worth Center
Thu 07:22:07 PM 31.8436 -98.1225 181° South 375 432 41,000  Level Houston Center
Thu 07:23:09 PM 31.7356 -98.1258 182° South 381 438 41,000  Level Houston Center
Thu 07:24:11 PM 31.6283 -98.1294 182° South 382 440 41,000  Level Houston Center
Thu 07:25:13 PM 31.5269 -98.1336 182° South 368 423 41,000  Level Houston Center
Thu 07:26:16 PM 31.4078 -98.1353 181° South 364 419 41,000  Level Houston Center
Thu 07:27:17 PM 31.3033 -98.1392 182° South 370 426 41,000  Level Houston Center
Thu 07:28:20 PM 31.1978 -98.1436 182° South 375 432 41,000  Level Houston Center
Thu 07:29:22 PM 31.0928 -98.1431 180° South 377 434 41,000  Level Houston Center
Thu 07:30:24 PM 30.9897 -98.1444 181° South 371 427 41,000  Level Houston Center
Thu 07:31:26 PM 30.8878 -98.1442 180° South 365 420 41,000  Level Houston Center
Thu 07:32:28 PM 30.7853 -98.1444 180° South 365 420 41,000  Level Houston Center
Thu 07:33:30 PM 30.6642 -98.1450 180° South 370 426 41,000  Level Houston Center
Thu 07:34:32 PM 30.5603 -98.1450 180° South 370 426 41,000  Level Houston Center
Thu 07:35:34 PM 30.4575 -98.1456 180° South 367 422 41,000  Level Houston Center
Thu 07:36:36 PM 30.3553 -98.1450 180° South 365 420 41,000  Level Houston Center
Thu 07:37:39 PM 30.2439 -98.1453 180° South 361 415 41,000 -48 Level Houston Center
Thu 07:38:41 PM 30.1336 -98.1458 180° South 366 421 40,900 -774 Descending Houston Center
Thu 07:39:43 PM 30.0322 -98.1458 180° South 365 420 39,400 -1,645 Descending Houston Center
Thu 07:40:45 PM 29.9242 -98.1475 181° South 361 415 37,500 -1,161 Descending Houston Center
Thu 07:41:47 PM 29.8222 -98.1472 180° South 365 420 37,000 -242 Descending Houston Center
Thu 07:42:49 PM 29.7222 -98.1475 180° South 359 413 37,000  Level Houston Center
Thu 07:43:51 PM 29.6119 -98.1475 180° South 368 423 37,000  Level Houston Center
Thu 07:44:53 PM 29.5061 -98.1475 180° South 379 436 37,000 -726 Level Houston Center
Thu 07:45:55 PM 29.3892 -98.1478 180° South 387 445 35,500 -1,645 Descending Houston Center
Thu 07:46:57 PM 29.2811 -98.1494 181° South 387 445 33,600 -1,920 Descending Houston Center
Thu 07:48:00 PM 29.1708 -98.1506 181° South 393 452 31,500 -2,016 Descending Houston Center
Thu 07:49:02 PM 29.0531 -98.1517 180° South 393 452 29,400 -1,984 Descending Houston Center
Thu 07:50:04 PM 28.9417 -98.1517 180° South 398 458 27,400 -2,032 Descending Houston Center
Thu 07:51:06 PM 28.8228 -98.1525 180° South 395 455 25,200 -2,032 Descending Houston Center
Thu 07:52:08 PM 28.7219 -98.1533 180° South 382 440 23,200 -1,887 Descending Houston Center
Thu 07:53:10 PM 28.6175 -98.1506 179° South 380 437 21,300 -1,935 Descending Houston Center
Thu 07:54:12 PM 28.5153 -98.1481 179° South 369 425 19,200 -2,000 Descending Houston Center
Thu 07:55:10 PM 28.4331 -98.0661 139° Southeast 352 405 17,300 -2,053 Descending Houston Center
Thu 07:55:28 PM 28.4094 -98.0406 136° Southeast 350 403 16,600 -2,000 Descending Houston Center
Thu 07:56:16 PM 28.3606 -97.9797 132° Southeast 352 405 15,100 -1,701 Descending Houston Center
Thu 07:56:35 PM 28.3397 -97.9572 136° Southeast 348 400 14,700 -1,452 Descending Houston Center
Thu 07:57:18 PM 28.2928 -97.9044 135° Southeast 346 398 13,600 -1,700 Descending Houston Center
Thu 07:57:35 PM 28.2658 -97.8933 160° South 319 367 13,000 -1,967 Descending Houston Center
Thu 07:58:19 PM 28.2206 -97.8658 152° Southeast 300 345 11,600 -1,967 Descending Houston Center
Thu 07:58:36 PM 28.1986 -97.8550 156° South 261 300 11,000 -2,032 Descending Houston Center
Thu 07:59:21 PM 28.1511 -97.8253 151° Southeast 276 318 9,500 -1,963 Descending Houston Center
Thu 08:00:23 PM 28.0917 -97.7900 152° Southeast 256 295 7,500 -1,935 Descending Houston Center
Thu 08:01:25 PM 28.0342 -97.7581 154° Southeast 239 275 5,500 -1,790 Descending Houston Center
Thu 08:02:27 PM 27.9775 -97.7281 155° Southeast 231 266 3,800 -1,210 Descending Houston Center
Thu 08:03:29 PM 27.9350 -97.6808 136° Southeast 222 255 3,000 -812 Descending Houston Center
Thu 08:04:40 PM 27.8917 -97.6403 140° Southeast 158 182 2,000 -458 Descending Houston Center
Thu 08:05:40 PM 27.8631 -97.6086 136° Southeast 146 168 2,000 -142 Level Houston Center
Thu 08:06:47 PM 27.8367 -97.5792 135° Southeast 109 125 1,700 -422 Descending Houston Center
Thu 08:07:48 PM 27.8175 -97.5581 136° Southeast 85 98 1,100 -574 Descending Houston Center
Thu 08:08:42 PM 27.7986 -97.5369 135° Southeast 104 120 600 -556 Descending Houston Center
Thu 08:10:00 PM 27.7667 -97.5000 138° Southeast  Level FlightAware Approximate
Thu 08:17:00 PM 27.7704 -97.5012 138° Southeast  Level Estimated

Login

Don't have an account? Register now (free) for customized features, flight alerts, and more!